DAAT

Aguenar – Hadj Bey Akhamok Airport

Tamanrasset, Algeria
METAR DAAT 221500Z 22005KT 6000 SCT046 SCT100 35/M02 Q1019
Observed Flight Rules
May-22 @ 15:00 UTC (29 minutes ago) Marginal Visual Flight Rules
Wind Visibility Clouds
220° at 5 knots 6,003 meters
  • Scattered at 4,600' AGL
  • Scattered at 10,000' AGL
Temperatures Readings
Current 35°C / 95°F
Dewpoint -2°C / 28°F
Humidity 9%
Altimeter 30.09" Hg
Pressure 1019 hPa
Elevation 1377
METAR DAAT 221500Z 22005KT 6000 SCT046 SCT100 35/M02 Q1019
Observed Flight Rules
May-22 @ 15:00 UTC
(29 minutes ago)
MVFR
Wind Visibility
220° at 5 knots 6,003 meters
Clouds
  • Scattered at 4,600' AGL
  • Scattered at 10,000' AGL
Temperature Dewpoint
35°C / 95°F -2°C / 28°F
Humidity Altimeter Pressure
9% 30.09" Hg 1019 hPa